createdAt,value
2023-02-20T00:00:32.284Z,101557.06
2023-02-20T00:05:35.492Z,101533.00
2023-02-20T00:10:37.324Z,101545.09
2023-02-20T00:15:39.102Z,101534.81
2023-02-20T00:20:42.217Z,101529.63
2023-02-20T00:25:43.966Z,101524.56
2023-02-20T00:30:45.757Z,101534.19
2023-02-20T00:35:50.174Z,101507.44
2023-02-20T00:40:51.880Z,101506.72
2023-02-20T00:45:53.584Z,101492.19
2023-02-20T00:50:58.835Z,101491.47
2023-02-20T00:56:00.578Z,101493.28
2023-02-20T01:01:02.372Z,101470.75
2023-02-20T01:06:05.924Z,101473.34
2023-02-20T01:11:07.644Z,101471.78
2023-02-20T01:16:10.439Z,101472.81
2023-02-20T01:21:13.688Z,101457.31
2023-02-20T01:26:15.454Z,101437.53
2023-02-20T01:31:17.300Z,101435.09
2023-02-20T01:36:20.980Z,101437.81
2023-02-20T01:41:22.868Z,101425.66
2023-02-20T01:46:44.429Z,101403.31
2023-02-20T01:51:49.521Z,101376.47
2023-02-20T01:56:51.371Z,101381.69
2023-02-20T02:01:53.202Z,101379.94
2023-02-20T02:06:56.369Z,101380.06
2023-02-20T02:11:58.110Z,101357.50
2023-02-20T02:17:12.803Z,101359.34
2023-02-20T02:22:42.220Z,101348.06
2023-02-20T02:28:04.311Z,101347.06
2023-02-20T02:33:24.541Z,101330.81
2023-02-20T02:38:30.822Z,101318.78
2023-02-20T02:43:35.940Z,101317.94
2023-02-20T02:48:40.149Z,101311.16
2023-02-20T02:53:43.499Z,101305.00
2023-02-20T02:58:45.285Z,101298.84
2023-02-20T03:03:47.026Z,101311.66
2023-02-20T03:08:57.839Z,101310.72
2023-02-20T03:14:20.013Z,101300.41
2023-02-20T03:19:27.420Z,101290.94
2023-02-20T03:24:30.480Z,101293.66
2023-02-20T03:29:34.308Z,101289.41
2023-02-20T03:34:54.573Z,101286.69
2023-02-20T03:40:17.543Z,101277.31
2023-02-20T03:45:20.007Z,101260.97
2023-02-20T03:50:41.000Z,101261.00
2023-02-20T03:55:44.501Z,101248.03
2023-02-20T04:00:48.310Z,101237.63
2023-02-20T04:05:51.229Z,101227.28
2023-02-20T04:11:00.038Z,101216.84
2023-02-20T04:16:02.589Z,101229.00
2023-02-20T04:21:07.473Z,101222.06
2023-02-20T04:26:17.590Z,101230.72
2023-02-20T04:31:21.878Z,101219.31
2023-02-20T04:36:25.240Z,101202.94
2023-02-20T04:41:30.739Z,101177.59
2023-02-20T04:46:33.366Z,101166.50
2023-02-20T04:51:35.328Z,101164.97
2023-02-20T04:56:38.485Z,101171.81
2023-02-20T05:01:41.845Z,101176.31
2023-02-20T05:06:44.070Z,101186.75
2023-02-20T05:11:47.279Z,101176.25
2023-02-20T05:16:51.136Z,101160.59
2023-02-20T05:22:11.378Z,101160.34
2023-02-20T05:27:14.963Z,101146.38
2023-02-20T05:32:16.931Z,101129.84
2023-02-20T05:37:19.417Z,101116.94
2023-02-20T05:42:22.961Z,101105.03
2023-02-20T05:47:24.673Z,101106.03
2023-02-20T05:52:26.447Z,101081.72
2023-02-20T05:57:29.541Z,101085.25
2023-02-20T06:02:31.737Z,101080.91
2023-02-20T06:07:33.618Z,101084.47
2023-02-20T06:12:36.680Z,101076.66
2023-02-20T06:17:38.406Z,101063.78
2023-02-20T06:22:40.186Z,101079.41
2023-02-20T06:27:43.448Z,101077.81
2023-02-20T06:32:45.827Z,101059.75
2023-02-20T06:37:47.526Z,101051.88
2023-02-20T06:42:50.691Z,101055.50
2023-02-20T06:47:52.438Z,101036.53
2023-02-20T06:52:54.607Z,101045.34
2023-02-20T06:57:57.633Z,101036.88
2023-02-20T07:02:59.358Z,101035.28
2023-02-20T07:08:01.535Z,101042.47
2023-02-20T07:13:06.209Z,101040.91
2023-02-20T07:18:08.002Z,101028.06
2023-02-20T07:23:09.902Z,101030.81
2023-02-20T07:28:13.021Z,101036.28
2023-02-20T07:33:14.857Z,101026.03
2023-02-20T07:38:16.540Z,101033.16
2023-02-20T07:43:19.982Z,101030.88
2023-02-20T07:48:25.545Z,101007.69
2023-02-20T07:53:27.233Z,101003.69
2023-02-20T07:58:30.306Z,101004.00
2023-02-20T08:03:32.022Z,101009.47
2023-02-20T08:08:33.762Z,101012.19
2023-02-20T08:13:36.826Z,101011.13
2023-02-20T08:18:38.500Z,101018.13
2023-02-20T08:23:40.247Z,101000.97
2023-02-20T08:28:43.342Z,100975.38
2023-02-20T08:33:45.098Z,100958.59
2023-02-20T08:38:46.801Z,100965.78
2023-02-20T08:43:49.917Z,100963.97
2023-02-20T08:48:51.663Z,100971.78
2023-02-20T08:53:53.411Z,100967.06
2023-02-20T08:58:56.500Z,100981.22
2023-02-20T09:03:58.243Z,100969.19
2023-02-20T09:09:00.027Z,100972.31
2023-02-20T09:14:03.176Z,100982.44
2023-02-20T09:19:07.314Z,100975.19
2023-02-20T09:24:09.023Z,100975.25
2023-02-20T09:29:12.165Z,100962.31
2023-02-20T09:34:13.940Z,100934.44
2023-02-20T09:39:17.815Z,100950.16
2023-02-20T09:44:23.451Z,100943.91
2023-02-20T09:49:26.235Z,100933.38
2023-02-20T09:54:29.461Z,100916.97
2023-02-20T09:59:35.084Z,100919.47
2023-02-20T10:04:38.531Z,100914.19
2023-02-20T10:09:40.237Z,100948.03
2023-02-20T10:14:54.889Z,100909.84
2023-02-20T10:20:00.336Z,100914.94
2023-02-20T10:25:08.526Z,100912.34
2023-02-20T10:30:12.461Z,100929.63
2023-02-20T10:35:15.386Z,100909.69
2023-02-20T10:40:20.016Z,100913.22
2023-02-20T10:45:28.168Z,100920.25
2023-02-20T10:50:32.259Z,100919.41
2023-02-20T10:55:35.185Z,100912.34
2023-02-20T11:00:39.578Z,100894.09
2023-02-20T11:05:45.097Z,100892.47
2023-02-20T11:10:46.823Z,100880.97
2023-02-20T11:15:50.558Z,100886.38
2023-02-20T11:20:53.875Z,100878.56
2023-02-20T11:25:55.600Z,100882.06
2023-02-20T11:31:00.796Z,100873.34
2023-02-20T11:36:10.467Z,100870.66
2023-02-20T11:41:25.831Z,100859.47
2023-02-20T11:46:29.263Z,100840.34
2023-02-20T11:51:32.145Z,100812.50
2023-02-20T11:56:34.025Z,100822.06
2023-02-20T12:01:38.166Z,100838.53
2023-02-20T12:06:42.054Z,100849.06
2023-02-20T12:11:44.958Z,100845.59
2023-02-20T12:16:57.943Z,100879.34
2023-02-20T12:22:01.747Z,100847.06
2023-02-20T12:27:05.231Z,100868.88
2023-02-20T12:32:19.431Z,100847.22
2023-02-20T12:37:25.236Z,100878.50
2023-02-20T12:42:29.834Z,100861.81
2023-02-20T12:47:33.730Z,100868.75
2023-02-20T12:52:46.129Z,100854.78
2023-02-20T12:57:51.541Z,100851.38
2023-02-20T13:02:58.850Z,100836.53
2023-02-20T13:08:01.589Z,100838.22
2023-02-20T13:13:03.388Z,100839.03
2023-02-20T13:18:10.346Z,100840.81
2023-02-20T13:23:30.758Z,100831.22
2023-02-20T13:28:42.625Z,100816.41
2023-02-20T13:33:46.478Z,100822.66
2023-02-20T13:39:45.056Z,100816.50
2023-02-20T13:44:47.153Z,100814.88
2023-02-20T13:49:58.895Z,100807.97
2023-02-20T13:55:02.399Z,100815.81
2023-02-20T14:00:14.893Z,100827.94
2023-02-20T14:05:20.405Z,100803.69
2023-02-20T14:10:25.893Z,100821.09
2023-02-20T14:15:28.234Z,100820.25
2023-02-20T14:20:35.942Z,100815.94
2023-02-20T14:25:37.844Z,100804.50
2023-02-20T14:30:41.768Z,100799.41
2023-02-20T14:35:56.056Z,100795.91
2023-02-20T14:40:59.603Z,100787.16
2023-02-20T14:46:03.879Z,100782.91
2023-02-20T14:51:13.232Z,100796.84
2023-02-20T14:56:17.262Z,100789.03
2023-02-20T15:01:35.284Z,100789.06
2023-02-20T15:06:38.840Z,100788.09
2023-02-20T15:11:46.396Z,100786.31
2023-02-20T15:16:48.095Z,100796.78
2023-02-20T15:21:57.699Z,100798.00
2023-02-20T15:27:09.843Z,100808.94
2023-02-20T15:32:19.888Z,100801.88
2023-02-20T15:37:30.461Z,100802.59
2023-02-20T15:42:39.888Z,100804.31
2023-02-20T15:47:41.731Z,100803.41
2023-02-20T15:52:45.167Z,100812.13
2023-02-20T15:57:47.147Z,100810.25
2023-02-20T16:02:49.030Z,100806.91
2023-02-20T16:07:52.235Z,100813.00
2023-02-20T16:12:54.840Z,100812.06
2023-02-20T16:17:56.556Z,100801.72
2023-02-20T16:22:59.725Z,100801.72
2023-02-20T16:28:01.509Z,100794.63
2023-02-20T16:33:03.397Z,100808.59
2023-02-20T16:38:06.450Z,100808.50
2023-02-20T16:43:08.160Z,100800.78
2023-02-20T16:48:10.596Z,100808.59
2023-02-20T16:53:14.049Z,100818.31
2023-02-20T16:58:15.865Z,100825.22
2023-02-20T17:03:17.622Z,100820.84
2023-02-20T17:08:21.465Z,100813.94
2023-02-20T17:13:23.133Z,100804.34
2023-02-20T17:18:24.778Z,100803.56
2023-02-20T17:23:27.889Z,100795.75
2023-02-20T17:28:29.635Z,100798.38
2023-02-20T17:33:31.369Z,100788.00
2023-02-20T17:38:34.577Z,100799.38
2023-02-20T17:43:36.359Z,100811.38
2023-02-20T17:48:38.133Z,100810.63
2023-02-20T17:53:41.399Z,100813.25
2023-02-20T17:58:43.259Z,100801.97
2023-02-20T18:03:45.088Z,100809.00
2023-02-20T18:08:49.714Z,100811.63
2023-02-20T18:13:51.596Z,100818.63
2023-02-20T18:18:53.372Z,100818.59
2023-02-20T18:23:56.517Z,100832.50
2023-02-20T18:28:58.907Z,100831.69
2023-02-20T18:34:01.858Z,100829.97
2023-02-20T18:39:05.400Z,100821.28
2023-02-20T18:44:07.870Z,100814.31
2023-02-20T18:49:09.682Z,100805.56
2023-02-20T18:54:16.924Z,100788.22
2023-02-20T18:59:18.959Z,100794.34
2023-02-20T19:04:20.747Z,100795.16
2023-02-20T19:09:24.438Z,100790.84
2023-02-20T19:14:29.164Z,100774.38
2023-02-20T19:19:31.536Z,100785.72
2023-02-20T19:24:37.711Z,100791.09
2023-02-20T19:29:41.746Z,100786.69
2023-02-20T19:34:44.255Z,100778.03
2023-02-20T19:39:47.454Z,100773.81
2023-02-20T19:44:49.285Z,100774.56
2023-02-20T19:49:51.746Z,100765.06
2023-02-20T19:54:54.799Z,100758.97
2023-02-20T19:59:56.558Z,100764.19
2023-02-20T20:04:58.400Z,100779.81
2023-02-20T20:10:01.510Z,100770.31
2023-02-20T20:15:05.837Z,100772.88
2023-02-20T20:20:10.994Z,100770.41
2023-02-20T20:25:14.172Z,100775.63
2023-02-20T20:30:17.260Z,100775.69
2023-02-20T20:35:19.642Z,100766.13
2023-02-20T20:40:22.994Z,100768.81
2023-02-20T20:45:24.865Z,100767.19
2023-02-20T20:50:27.824Z,100769.06
2023-02-20T20:55:31.076Z,100767.19
2023-02-20T21:00:33.601Z,100767.13
2023-02-20T21:05:35.423Z,100770.63
2023-02-20T21:10:38.456Z,100774.06
2023-02-20T21:15:40.245Z,100763.66
2023-02-20T21:20:42.012Z,100773.94
2023-02-20T21:25:45.044Z,100772.22
2023-02-20T21:30:47.685Z,100774.84
2023-02-20T21:35:49.571Z,100783.53
2023-02-20T21:40:54.716Z,100773.09
2023-02-20T21:45:56.392Z,100772.31
2023-02-20T21:50:58.070Z,100774.03
2023-02-20T21:56:01.059Z,100775.75
2023-02-20T22:01:02.755Z,100757.53
2023-02-20T22:06:04.690Z,100770.56
2023-02-20T22:11:26.258Z,100762.66
2023-02-20T22:16:46.516Z,100760.06
2023-02-20T22:22:06.845Z,100765.31
2023-02-20T22:27:28.417Z,100772.34
2023-02-20T22:32:48.608Z,100779.31
2023-02-20T22:38:08.969Z,100771.50
2023-02-20T22:43:30.972Z,100770.69
2023-02-20T22:48:51.259Z,100761.91
2023-02-20T22:54:11.733Z,100769.88
2023-02-20T22:59:33.246Z,100759.50
2023-02-20T23:04:53.640Z,100751.63
2023-02-20T23:10:13.949Z,100757.59
2023-02-20T23:15:35.735Z,100764.53
2023-02-20T23:20:56.077Z,100774.97
2023-02-20T23:26:16.254Z,100774.28
2023-02-20T23:31:37.909Z,100770.81
2023-02-20T23:36:58.069Z,100773.34
2023-02-20T23:42:18.347Z,100772.53
2023-02-20T23:47:39.940Z,100763.72
2023-02-20T23:53:00.328Z,100768.94
2023-02-20T23:58:20.520Z,100773.28
